Time;durP1;ratioP1;P1;durP2;ratioP2;P2;SDS_P1;SDS_P2;PMS_P1;PMS_P2;Temp;Humidity;BMP_temperature;BMP_pressure;BME280_temperature;BME280_humidity;BME280_pressure;Samples;Min_cycle;Max_cycle;Signal;HPM_P1;HPM_P2
2022/04/26 03:37:23;;;;;;;6.90;5.10;;;15.30;54.30;;;;;;5071456;28;20039;-39
2022/04/26 03:39:50;;;;;;;6.13;5.38;;;15.30;54.50;;;;;;5071382;28;20274;-39
2022/04/26 03:42:15;;;;;;;8.23;7.25;;;15.30;54.30;;;;;;5070703;28;20036;-39
2022/04/26 03:44:42;;;;;;;8.00;7.25;;;15.30;53.90;;;;;;5070642;28;20025;-39
2022/04/26 03:47:08;;;;;;;8.77;6.20;;;15.30;54.40;;;;;;5070365;28;20028;-39
2022/04/26 03:49:35;;;;;;;6.40;5.80;;;15.30;54.00;;;;;;5072114;28;20496;-39
2022/04/26 03:52:01;;;;;;;8.60;6.18;;;15.30;53.70;;;;;;5071214;28;20059;-39
2022/04/26 03:54:27;;;;;;;8.40;5.72;;;15.40;53.90;;;;;;5071953;28;20064;-39
2022/04/26 03:56:52;;;;;;;7.15;5.65;;;15.40;53.50;;;;;;5074780;28;20443;-39
2022/04/26 03:59:21;;;;;;;7.57;5.28;;;15.40;53.80;;;;;;5076306;28;20035;-39
2022/04/26 04:01:47;;;;;;;6.88;4.43;;;15.30;53.60;;;;;;5075187;28;20029;-39
2022/04/26 04:04:14;;;;;;;5.38;4.45;;;15.30;53.60;;;;;;5075916;28;20473;-39
2022/04/26 04:06:40;;;;;;;4.30;3.90;;;15.40;53.50;;;;;;5073506;28;20494;-39
2022/04/26 04:09:05;;;;;;;3.63;3.33;;;15.30;53.60;;;;;;5075775;28;20416;-39
2022/04/26 04:11:31;;;;;;;5.53;4.47;;;15.30;53.30;;;;;;5073216;28;20028;-39
2022/04/26 04:13:57;;;;;;;3.53;3.22;;;15.40;53.30;;;;;;5074807;28;20036;-39
2022/04/26 04:16:22;;;;;;;6.38;3.47;;;15.40;53.40;;;;;;5074837;28;20028;-39
2022/04/26 04:21:33;;;;;;;5.47;4.63;;;15.40;53.60;;;;;;5074700;28;20090;-39
2022/04/26 04:23:59;;;;;;;6.70;4.18;;;15.40;53.70;;;;;;5074089;28;20285;-39
2022/04/26 04:26:24;;;;;;;7.40;4.32;;;15.40;53.50;;;;;;5073429;28;20024;-39
2022/04/26 04:28:50;;;;;;;5.43;4.93;;;15.40;53.40;;;;;;5074595;28;20020;-39
2022/04/26 04:31:16;;;;;;;5.28;4.53;;;15.40;53.40;;;;;;5074331;28;20440;-39
2022/04/26 04:33:43;;;;;;;4.97;3.92;;;15.40;53.40;;;;;;5075263;28;20359;-39
2022/04/26 04:36:10;;;;;;;6.72;4.30;;;15.40;53.20;;;;;;5074127;28;20385;-39
2022/04/26 04:38:35;;;;;;;5.20;4.07;;;15.30;53.40;;;;;;5073977;28;20086;-39
2022/04/26 04:41:01;;;;;;;4.28;3.10;;;15.30;53.40;;;;;;5074757;28;20028;-39
2022/04/26 04:43:27;;;;;;;4.63;2.80;;;15.40;53.10;;;;;;5053750;28;20111;-39
2022/04/26 04:45:52;;;;;;;5.10;3.13;;;15.30;52.90;;;;;;5055043;28;20375;-39
2022/04/26 04:48:18;;;;;;;4.00;2.92;;;15.30;53.00;;;;;;5073985;28;20121;-39
2022/04/26 04:50:44;;;;;;;2.88;2.50;;;15.30;52.60;;;;;;5073775;28;20020;-39
2022/04/26 04:53:10;;;;;;;3.78;2.50;;;15.40;52.20;;;;;;5073804;28;20082;-39
2022/04/26 04:55:38;;;;;;;3.28;1.98;;;15.30;52.20;;;;;;5073594;28;20047;-39
2022/04/26 04:58:04;;;;;;;3.38;2.10;;;15.30;52.30;;;;;;5057208;28;20087;-39
2022/04/26 05:00:30;;;;;;;1.98;1.80;;;15.30;51.90;;;;;;5054939;28;20478;-40
2022/04/26 05:02:55;;;;;;;3.45;1.55;;;15.30;51.60;;;;;;5069314;28;20115;-39
2022/04/26 05:05:21;;;;;;;3.92;1.67;;;15.30;51.10;;;;;;5074818;28;20017;-39
2022/04/26 05:07:47;;;;;;;2.10;1.40;;;15.30;51.80;;;;;;5073541;28;20079;-39
2022/04/26 05:10:13;;;;;;;2.78;1.80;;;15.30;51.30;;;;;;5074729;28;20080;-39
2022/04/26 05:12:39;;;;;;;2.90;2.25;;;15.30;51.70;;;;;;5072994;28;20070;-39
2022/04/26 05:15:05;;;;;;;3.15;2.08;;;15.30;51.70;;;;;;5074414;28;20058;-39
2022/04/26 05:17:30;;;;;;;5.60;2.90;;;15.30;51.50;;;;;;5073766;28;20033;-39
2022/04/26 05:19:56;;;;;;;3.05;2.08;;;15.30;51.30;;;;;;5090032;28;20035;-39
2022/04/26 05:22:22;;;;;;;4.35;2.30;;;15.20;51.00;;;;;;5073587;28;20024;-39
2022/04/26 05:24:56;;;;;;;2.97;2.78;;;15.20;51.10;;;;;;5073666;28;20101;-39
2022/04/26 05:27:23;;;;;;;3.20;2.17;;;15.20;50.60;;;;;;5073236;28;20024;-39
2022/04/26 05:29:49;;;;;;;4.13;3.72;;;15.10;51.00;;;;;;5072958;28;20024;-39
2022/04/26 05:32:22;;;;;;;9.85;6.35;;;15.20;51.00;;;;;;5073683;28;20401;-39
2022/04/26 05:34:54;;;;;;;7.13;5.03;;;15.20;51.10;;;;;;5074088;28;20087;-39
2022/04/26 05:37:19;;;;;;;5.07;4.43;;;15.30;51.20;;;;;;5073540;28;20040;-38
2022/04/26 05:39:45;;;;;;;5.40;4.20;;;15.20;51.30;;;;;;5073226;28;20024;-38
2022/04/26 05:42:11;;;;;;;3.35;3.05;;;15.20;51.20;;;;;;5073293;28;20091;-39
2022/04/26 05:44:38;;;;;;;4.45;2.30;;;15.20;51.00;;;;;;5073816;28;20032;-39
2022/04/26 05:47:08;;;;;;;2.58;2.38;;;15.20;51.10;;;;;;5071759;28;20029;-39
2022/04/26 05:49:34;;;;;;;2.92;2.42;;;15.10;51.00;;;;;;5073911;28;20031;-38
2022/04/26 05:52:01;;;;;;;2.50;2.30;;;15.10;51.20;;;;;;5072959;28;20377;-39
2022/04/26 05:54:27;;;;;;;4.85;2.10;;;15.20;50.30;;;;;;5073699;28;20120;-39
2022/04/26 05:56:53;;;;;;;2.42;2.20;;;15.20;51.10;;;;;;5072799;28;20492;-38
2022/04/26 05:59:23;;;;;;;2.47;2.00;;;15.10;50.90;;;;;;5073639;28;20017;-39
2022/04/26 06:01:50;;;;;;;2.00;1.80;;;15.10;50.90;;;;;;5072933;28;20024;-39
2022/04/26 06:04:16;;;;;;;2.40;2.20;;;15.20;51.10;;;;;;5073825;28;20035;-39
2022/04/26 06:06:41;;;;;;;1.80;1.70;;;15.20;51.00;;;;;;5072195;28;20033;-38
2022/04/26 06:09:07;;;;;;;2.85;2.08;;;15.20;51.10;;;;;;5083346;28;20115;-39
2022/04/26 06:11:33;;;;;;;1.88;1.77;;;15.20;49.60;;;;;;5071601;28;20115;-39
2022/04/26 06:14:01;;;;;;;1.92;1.77;;;15.10;51.00;;;;;;5072152;28;20041;-39
2022/04/26 06:16:28;;;;;;;3.97;2.28;;;15.10;50.30;;;;;;5071563;28;20025;-39
2022/04/26 06:18:54;;;;;;;2.47;2.15;;;15.20;51.30;;;;;;5065297;28;20028;-39
2022/04/26 06:21:20;;;;;;;6.65;5.90;;;15.10;51.30;;;;;;5072497;28;20024;-39
2022/04/26 06:23:45;;;;;;;4.57;4.18;;;15.10;51.60;;;;;;5071632;28;20052;-39
2022/04/26 06:26:11;;;;;;;6.10;4.15;;;15.00;51.70;;;;;;5088167;28;20060;-40
2022/04/26 06:28:37;;;;;;;8.70;7.85;;;15.10;52.50;;;;;;5071673;28;20036;-39
2022/04/26 06:31:02;;;;;;;9.43;8.52;;;15.10;52.80;;;;;;5072490;28;20093;-39
2022/04/26 06:33:28;;;;;;;10.77;8.57;;;15.10;53.10;;;;;;5070689;28;20135;-39
2022/04/26 06:35:54;;;;;;;11.13;8.40;;;14.90;53.30;;;;;;5072798;28;20021;-39
2022/04/26 06:38:22;;;;;;;8.88;7.15;;;15.00;53.90;;;;;;5070686;28;20020;-39
2022/04/26 06:40:48;;;;;;;8.75;7.72;;;14.90;54.40;;;;;;5091402;28;20480;-39
2022/04/26 06:43:15;;;;;;;10.48;9.38;;;15.00;54.30;;;;;;5077915;28;20025;-39
2022/04/26 06:45:41;;;;;;;11.60;10.40;;;15.00;54.80;;;;;;5071940;28;20033;-39
2022/04/26 06:48:11;;;;;;;11.77;10.57;;;15.00;54.60;;;;;;5071646;28;20385;-39
2022/04/26 06:50:37;;;;;;;11.73;10.52;;;15.00;55.10;;;;;;5072702;28;20041;-39
2022/04/26 06:53:04;;;;;;;15.77;11.10;;;15.10;54.90;;;;;;5070789;28;20378;-39
2022/04/26 06:55:29;;;;;;;12.88;11.55;;;15.10;55.20;;;;;;5071453;28;20046;-39
2022/04/26 06:57:55;;;;;;;12.15;10.10;;;15.00;55.50;;;;;;5071572;28;20523;-40
2022/04/26 07:00:21;;;;;;;14.45;10.65;;;15.00;55.70;;;;;;5072497;28;20042;-39
2022/04/26 07:02:47;;;;;;;13.27;10.15;;;14.90;55.60;;;;;;5072026;28;20032;-39
2022/04/26 07:05:14;;;;;;;9.45;8.55;;;14.90;55.60;;;;;;5072617;28;20032;-39
2022/04/26 07:11:05;;;;;;;10.88;9.20;;;15.00;56.90;;;;;;5067328;28;20055;-39
2022/04/26 07:13:31;;;;;;;9.88;8.32;;;15.00;56.30;;;;;;5071019;28;20024;-40
2022/04/26 07:15:56;;;;;;;9.63;8.52;;;14.90;55.70;;;;;;5072224;28;20040;-40
2022/04/26 07:18:22;;;;;;;9.23;8.20;;;14.90;55.70;;;;;;5070817;28;20025;-40
2022/04/26 07:20:47;;;;;;;9.10;8.20;;;15.00;55.50;;;;;;5071044;28;20040;-40
2022/04/26 07:23:13;;;;;;;9.82;8.82;;;15.00;55.60;;;;;;5071149;28;20021;-40
2022/04/26 07:25:39;;;;;;;10.98;8.40;;;15.00;55.60;;;;;;5071816;28;20103;-40
2022/04/26 07:28:06;;;;;;;10.10;8.80;;;15.00;55.60;;;;;;5070932;28;20028;-40
2022/04/26 07:30:34;;;;;;;10.05;8.95;;;15.00;55.70;;;;;;5071708;28;20111;-40
2022/04/26 07:35:53;;;;;;;10.90;9.52;;;15.00;56.90;;;;;;5072134;28;20059;-40
2022/04/26 07:38:19;;;;;;;10.27;9.23;;;15.00;56.40;;;;;;5071247;28;20032;-40
2022/04/26 07:40:45;;;;;;;13.35;9.98;;;14.90;56.20;;;;;;5072298;28;20082;-39
2022/04/26 07:43:11;;;;;;;12.00;10.23;;;14.90;57.20;;;;;;5071431;28;20060;-38
2022/04/26 07:45:38;;;;;;;12.32;10.82;;;14.70;62.80;;;;;;5071058;28;20112;-38
2022/04/26 07:48:05;;;;;;;13.27;10.98;;;14.60;61.20;;;;;;5072000;28;20108;-39
2022/04/26 07:50:32;;;;;;;21.65;13.20;;;14.60;61.40;;;;;;5071401;28;20028;-39
2022/04/26 07:52:58;;;;;;;21.55;14.07;;;14.60;61.90;;;;;;5072071;28;20021;-39
2022/04/26 07:55:24;;;;;;;18.45;12.65;;;14.50;65.50;;;;;;5070020;28;20076;-38
2022/04/26 07:57:50;;;;;;;23.08;14.63;;;14.50;67.50;;;;;;5071018;28;20060;-38
2022/04/26 08:00:16;;;;;;;17.85;14.20;;;14.40;67.10;;;;;;5071273;28;20038;-39
2022/04/26 08:02:42;;;;;;;16.25;14.23;;;14.30;67.90;;;;;;5071758;28;20151;-39
2022/04/26 08:05:08;;;;;;;18.80;14.70;;;14.30;67.10;;;;;;5071964;28;20028;-39
2022/04/26 08:07:39;;;;;;;16.48;14.80;;;14.30;67.10;;;;;;5071182;28;20033;-39
2022/04/26 08:10:07;;;;;;;16.27;14.60;;;14.40;66.80;;;;;;5071925;28;20025;-39
2022/04/26 08:12:32;;;;;;;16.52;14.80;;;14.40;66.60;;;;;;5071234;28;20551;-39
2022/04/26 08:14:58;;;;;;;18.20;16.30;;;14.50;66.00;;;;;;5071837;28;20167;-40
2022/04/26 08:17:24;;;;;;;18.60;16.20;;;14.70;65.20;;;;;;5071104;28;20033;-40
2022/04/26 08:19:49;;;;;;;17.33;14.85;;;14.70;63.60;;;;;;5071940;28;20480;-40
2022/04/26 08:22:15;;;;;;;17.55;15.75;;;14.80;62.20;;;;;;5070645;28;20123;-39
2022/04/26 08:27:25;;;;;;;17.58;15.18;;;15.00;61.10;;;;;;5070822;28;20095;-40
2022/04/26 08:29:53;;;;;;;15.40;13.05;;;15.10;60.60;;;;;;5071753;28;20316;-40
2022/04/26 08:32:19;;;;;;;18.25;14.98;;;;;;;;;;5070832;28;20117;-40
2022/04/26 08:34:45;;;;;;;15.90;14.27;;;15.20;59.50;;;;;;5071477;28;20109;-40
2022/04/26 08:37:11;;;;;;;17.52;14.23;;;15.30;59.60;;;;;;5070728;28;20116;-39
2022/04/26 08:39:36;;;;;;;16.05;14.25;;;15.20;59.30;;;;;;5071003;28;20111;-40
2022/04/26 08:42:04;;;;;;;17.67;15.98;;;15.40;59.30;;;;;;5077725;28;20034;-40
2022/04/26 08:44:30;;;;;;;16.45;14.82;;;15.40;59.20;;;;;;5075145;28;20024;-40
2022/04/26 08:52:27;;;;;;;15.25;13.50;;;15.40;59.00;;;;;;5070108;28;20059;-38
2022/04/26 08:54:53;;;;;;;18.13;14.38;;;15.30;58.50;;;;;;5088629;28;20036;-38
2022/04/26 08:57:18;;;;;;;14.93;12.93;;;15.30;58.60;;;;;;5072334;28;20495;-38
2022/04/26 08:59:50;;;;;;;16.35;13.02;;;15.30;58.70;;;;;;5074691;28;20024;-38
2022/04/26 09:02:23;;;;;;;16.02;14.43;;;15.40;58.50;;;;;;5074296;28;20028;-39
2022/04/26 09:04:50;;;;;;;16.60;14.55;;;15.50;58.60;;;;;;5073735;28;20029;-39
2022/04/26 09:07:33;;;;;;;14.40;12.93;;;15.50;58.30;;;;;;5073798;28;20033;-39
2022/04/26 09:10:16;;;;;;;16.92;14.93;;;15.60;58.40;;;;;;5074589;28;20474;-39
2022/04/26 09:13:20;;;;;;;15.00;12.63;;;15.70;57.50;;;;;;5072800;28;20385;-39
2022/04/26 09:15:54;;;;;;;16.17;14.50;;;15.90;57.80;;;;;;5071433;28;20032;-39
2022/04/26 09:18:27;;;;;;;14.90;13.38;;;16.00;57.60;;;;;;5073909;28;20077;-39
2022/04/26 09:21:09;;;;;;;16.85;14.18;;;15.90;57.50;;;;;;5072259;28;20462;-39
2022/04/26 09:23:38;;;;;;;16.73;14.93;;;15.90;57.40;;;;;;5072859;28;20024;-39
2022/04/26 09:26:07;;;;;;;16.27;13.55;;;16.00;57.70;;;;;;5071342;28;20282;-39
2022/04/26 09:28:34;;;;;;;15.88;14.10;;;15.90;56.20;;;;;;5089481;28;20025;-39
2022/04/26 09:31:00;;;;;;;16.60;14.85;;;16.10;56.90;;;;;;5073793;28;20401;-39
2022/04/26 09:33:43;;;;;;;16.27;14.77;;;16.20;56.90;;;;;;5073879;28;20036;-39
2022/04/26 09:36:10;;;;;;;15.10;13.57;;;16.20;56.80;;;;;;5073010;28;20060;-38
2022/04/26 09:38:39;;;;;;;16.25;14.48;;;16.20;57.00;;;;;;5073719;28;20021;-39
2022/04/26 09:41:09;;;;;;;16.27;14.75;;;16.20;57.00;;;;;;5072641;28;20040;-39
2022/04/26 09:43:35;;;;;;;15.23;13.73;;;16.10;57.00;;;;;;5087537;28;20021;-38
2022/04/26 09:46:01;;;;;;;17.13;15.43;;;15.90;57.30;;;;;;5073175;28;20032;-38
2022/04/26 09:48:33;;;;;;;17.65;15.85;;;15.90;57.60;;;;;;5073056;28;20369;-38
2022/04/26 09:50:59;;;;;;;18.83;16.67;;;15.90;56.90;;;;;;5071476;28;20416;-38
2022/04/26 09:53:25;;;;;;;25.80;19.10;;;15.90;57.30;;;;;;5073687;28;20024;-38
2022/04/26 09:55:55;;;;;;;18.65;16.38;;;15.80;57.40;;;;;;5073513;28;20029;-39
2022/04/26 09:58:22;;;;;;;20.63;18.60;;;15.80;57.20;;;;;;5053831;28;20382;-39
2022/04/26 10:00:50;;;;;;;20.77;18.65;;;15.80;57.30;;;;;;5053624;28;20078;-39
2022/04/26 10:03:29;;;;;;;23.63;21.23;;;16.00;57.40;;;;;;5068383;28;20076;-39
2022/04/26 10:06:06;;;;;;;20.05;18.05;;;16.10;57.60;;;;;;5053629;28;20028;-39
2022/04/26 10:08:34;;;;;;;21.42;17.52;;;16.10;56.70;;;;;;5053452;28;20029;-39
2022/04/26 10:11:02;;;;;;;18.88;16.98;;;16.30;56.80;;;;;;5053605;28;20040;-39
2022/04/26 10:13:38;;;;;;;21.80;18.33;;;16.30;55.50;;;;;;5073268;28;20032;-40
2022/04/26 10:16:12;;;;;;;19.90;17.80;;;16.30;56.60;;;;;;5072023;28;20525;-40
2022/04/26 10:18:45;;;;;;;18.35;15.82;;;16.40;56.30;;;;;;5072400;28;20039;-40
2022/04/26 10:21:23;;;;;;;18.80;16.80;;;;;;;;;;5072614;28;20043;-40
2022/04/26 10:23:56;;;;;;;14.65;13.15;;;16.80;54.40;;;;;;5073278;28;20078;-40
2022/04/26 10:26:24;;;;;;;14.20;12.77;;;16.80;52.90;;;;;;5071775;28;20049;-40
2022/04/26 10:28:55;;;;;;;14.70;13.35;;;16.90;54.20;;;;;;5071915;28;20020;-40
2022/04/26 10:31:36;;;;;;;16.10;13.55;;;17.10;53.90;;;;;;5072336;28;20504;-41
2022/04/26 10:34:31;;;;;;;16.25;14.38;;;17.10;52.50;;;;;;5072672;28;20219;-40
2022/04/26 10:37:06;;;;;;;15.23;13.73;;;17.00;53.20;;;;;;5072082;28;20024;-40
2022/04/26 10:39:41;;;;;;;15.35;13.82;;;17.10;53.60;;;;;;5073048;28;20104;-40
2022/04/26 10:42:12;;;;;;;15.25;13.63;;;17.20;52.40;;;;;;5071827;28;20040;-40
2022/04/26 10:44:40;;;;;;;15.23;13.65;;;17.20;52.80;;;;;;5058578;28;20078;-40
2022/04/26 10:47:06;;;;;;;15.65;13.73;;;17.20;52.30;;;;;;5060058;28;20458;-40
2022/04/26 10:49:32;;;;;;;14.00;12.55;;;17.30;52.90;;;;;;5072853;28;20086;-40
2022/04/26 10:52:19;;;;;;;14.27;12.88;;;17.40;52.50;;;;;;5083231;28;20033;-40
2022/04/26 10:57:21;;;;;;;15.38;13.85;;;17.60;52.60;;;;;;5071558;28;20067;-39
2022/04/26 11:00:02;;;;;;;18.25;15.55;;;17.50;48.70;;;;;;5072555;28;20474;-39
2022/04/26 11:02:31;;;;;;;20.33;17.75;;;17.50;50.40;;;;;;5078386;28;20470;-40
2022/04/26 11:04:59;;;;;;;18.52;14.02;;;17.60;51.20;;;;;;5072142;28;20038;-40
2022/04/26 11:07:27;;;;;;;21.13;18.52;;;17.80;51.40;;;;;;5071528;28;20048;-39
2022/04/26 11:09:54;;;;;;;17.38;15.00;;;18.00;50.40;;;;;;5086968;28;20107;-40
2022/04/26 11:12:21;;;;;;;17.67;14.73;;;;;;;;;;5071203;28;20064;-39
2022/04/26 11:14:50;;;;;;;15.60;14.07;;;18.20;47.30;;;;;;5069404;28;20040;-39
2022/04/26 11:17:17;;;;;;;16.05;13.90;;;18.20;49.20;;;;;;5071256;28;20033;-40
2022/04/26 11:19:51;;;;;;;14.65;13.20;;;18.40;47.60;;;;;;5072165;28;20074;-39
2022/04/26 11:22:18;;;;;;;13.25;12.13;;;18.40;44.90;;;;;;5071171;28;20486;-39
2022/04/26 11:30:44;;;;;;;18.33;16.43;;;18.50;45.10;;;;;;5072612;28;20496;-40
2022/04/26 11:33:22;;;;;;;14.68;13.10;;;18.50;44.20;;;;;;5071647;28;20448;-40
2022/04/26 11:35:55;;;;;;;15.55;13.30;;;18.40;45.20;;;;;;5070763;28;20068;-39
2022/04/26 11:38:21;;;;;;;14.77;13.27;;;18.30;45.30;;;;;;5071291;28;20516;-39
2022/04/26 11:41:00;;;;;;;15.43;13.82;;;18.10;46.30;;;;;;5071984;28;20040;-39
2022/04/26 11:43:33;;;;;;;18.30;16.05;;;18.10;45.20;;;;;;5071314;28;20025;-39
2022/04/26 11:46:00;;;;;;;15.55;14.02;;;18.20;45.10;;;;;;5072285;28;20100;-40
2022/04/26 11:48:34;;;;;;;14.68;12.32;;;18.30;44.70;;;;;;5071200;28;20028;-39
2022/04/26 11:51:01;;;;;;;16.00;14.20;;;18.60;43.20;;;;;;5071926;28;20035;-40
2022/04/26 11:53:29;;;;;;;14.82;13.45;;;18.90;44.40;;;;;;5069496;28;20098;-40
2022/04/26 11:56:05;;;;;;;14.13;12.55;;;19.20;37.60;;;;;;5070890;28;20025;-40
2022/04/26 11:58:32;;;;;;;12.85;11.75;;;19.40;40.90;;;;;;5070223;28;20032;-40
2022/04/26 12:01:02;;;;;;;14.40;13.00;;;19.90;41.30;;;;;;5071235;28;20016;-40
2022/04/26 12:03:38;;;;;;;14.32;12.40;;;;;;;;;;5070717;28;20119;-40
2022/04/26 12:06:09;;;;;;;13.75;12.48;;;20.60;33.60;;;;;;5071280;28;20091;-40
2022/04/26 12:08:55;;;;;;;14.93;12.90;;;;;;;;;;5069833;28;20033;-39
2022/04/26 12:11:22;;;;;;;14.85;13.30;;;20.70;54.50;;;;;;5070944;28;20481;-39
2022/04/26 12:14:03;;;;;;;16.50;14.88;;;20.70;56.10;;;;;;5070434;28;20040;-39
2022/04/26 12:16:31;;;;;;;14.27;12.95;;;;;;;;;;5072835;28;20033;-39
2022/04/26 12:18:59;;;;;;;13.32;12.02;;;;;;;;;;5075348;28;20024;-39
2022/04/26 12:21:29;;;;;;;13.05;11.75;;;;;;;;;;5075820;28;20381;-40
2022/04/26 12:24:24;;;;;;;13.85;12.23;;;22.60;28.30;;;;;;5074157;28;20039;-40
2022/04/26 12:27:02;;;;;;;12.70;11.48;;;22.00;27.40;;;;;;5074718;28;20059;-40
2022/04/26 12:29:30;;;;;;;16.38;13.07;;;21.30;32.40;;;;;;5075651;28;20020;-45
2022/04/26 12:31:57;;;;;;;13.27;12.07;;;21.00;33.00;;;;;;5073750;28;20133;-40
2022/04/26 12:34:31;;;;;;;14.23;12.88;;;20.90;33.20;;;;;;5073971;28;20044;-38
2022/04/26 12:37:09;;;;;;;16.67;14.05;;;20.40;32.00;;;;;;5074549;28;20036;-39
2022/04/26 12:39:48;;;;;;;13.95;12.50;;;20.10;31.40;;;;;;5074143;28;20401;-40
2022/04/26 12:42:27;;;;;;;12.27;11.05;;;20.00;34.10;;;;;;5074618;28;20031;-40
2022/04/26 12:45:03;;;;;;;12.90;11.65;;;19.50;33.10;;;;;;5075489;28;20039;-39
2022/04/26 12:50:31;;;;;;;13.65;12.02;;;19.50;35.70;;;;;;5072145;28;20147;-40
2022/04/26 12:52:58;;;;;;;12.52;11.32;;;19.40;35.30;;;;;;5074410;28;20074;-40
2022/04/26 12:55:24;;;;;;;13.68;12.18;;;19.30;35.10;;;;;;5074370;28;20124;-40
2022/04/26 12:57:52;;;;;;;14.50;13.10;;;19.30;35.50;;;;;;5074212;28;20165;-38
2022/04/26 13:00:19;;;;;;;14.23;12.70;;;19.10;35.50;;;;;;5074087;28;20044;-39
2022/04/26 13:02:49;;;;;;;13.35;12.02;;;19.00;34.50;;;;;;5073863;28;20016;-39
2022/04/26 13:05:15;;;;;;;13.98;12.48;;;19.10;35.50;;;;;;5089473;28;20384;-40
2022/04/26 13:07:42;;;;;;;13.23;11.80;;;19.30;35.30;;;;;;5073857;28;20104;-39
2022/04/26 13:10:08;;;;;;;13.35;11.95;;;20.90;31.50;;;;;;5073340;28;20040;-40
2022/04/26 13:12:34;;;;;;;13.02;11.90;;;20.50;31.70;;;;;;5074274;28;20461;-40
2022/04/26 13:15:00;;;;;;;13.02;11.90;;;20.40;31.80;;;;;;5074366;28;20024;-39
2022/04/26 13:17:26;;;;;;;13.15;11.88;;;20.10;32.40;;;;;;5073917;28;20026;-39
2022/04/26 13:19:52;;;;;;;12.95;11.70;;;20.20;32.00;;;;;;5074611;28;20059;-39
2022/04/26 13:22:18;;;;;;;13.68;11.27;;;22.60;26.30;;;;;;5073814;28;20028;-39
2022/04/26 13:24:44;;;;;;;12.10;10.90;;;26.50;15.30;;;;;;5074591;28;20024;-39
2022/04/26 13:27:11;;;;;;;12.98;11.68;;;27.20;7.60;;;;;;5071849;28;20535;-40
2022/04/26 13:29:37;;;;;;;12.77;11.57;;;;;;;;;;5074359;28;20028;-39
2022/04/26 13:32:04;;;;;;;11.73;10.63;;;31.70;1.00;;;;;;5072580;28;20094;-39
2022/04/26 13:34:30;;;;;;;13.35;12.10;;;32.20;2.70;;;;;;5073205;28;20044;-39
2022/04/26 13:36:56;;;;;;;13.15;11.95;;;33.40;1.00;;;;;;5072829;28;20025;-40
2022/04/26 13:39:21;;;;;;;13.40;12.10;;;33.50;1.00;;;;;;5073751;28;20032;-39
2022/04/26 13:41:50;;;;;;;13.52;11.75;;;;;;;;;;5073815;28;20021;-39
2022/04/26 13:44:20;;;;;;;13.32;12.02;;;30.00;1.00;;;;;;5073237;28;20028;-40
2022/04/26 13:46:46;;;;;;;14.73;13.20;;;27.30;2.70;;;;;;5072675;28;20027;-40
2022/04/26 13:49:12;;;;;;;14.27;13.07;;;25.00;7.20;;;;;;5073136;28;20028;-39
2022/04/26 13:51:38;;;;;;;14.88;13.43;;;23.90;9.40;;;;;;5073835;28;20435;-39
2022/04/26 13:54:04;;;;;;;13.70;12.45;;;23.80;4.40;;;;;;5072793;28;20040;-38
2022/04/26 13:56:29;;;;;;;13.90;12.57;;;23.80;8.10;;;;;;5072273;28;20078;-38
2022/04/26 13:58:55;;;;;;;13.93;12.60;;;23.50;9.60;;;;;;5072813;28;20029;-39
2022/04/26 14:01:22;;;;;;;14.30;13.00;;;22.60;10.70;;;;;;5072568;28;20128;-39
2022/04/26 14:03:49;;;;;;;13.95;12.55;;;22.00;12.30;;;;;;5071853;28;20361;-39
2022/04/26 14:06:21;;;;;;;12.57;11.38;;;21.90;13.10;;;;;;5072649;28;20363;-39
2022/04/26 14:08:51;;;;;;;14.07;12.60;;;22.80;11.70;;;;;;5072937;28;20040;-38
2022/04/26 14:11:17;;;;;;;13.23;11.68;;;23.40;9.80;;;;;;5073528;28;20443;-39
2022/04/26 14:21:57;;;;;;;13.30;11.97;;;23.20;7.90;;;;;;5073698;28;19974;-39
2022/04/26 14:24:23;;;;;;;13.38;12.18;;;23.60;11.20;;;;;;5072427;28;20066;-39
2022/04/26 14:26:49;;;;;;;13.27;12.02;;;23.60;10.50;;;;;;5072659;28;20021;-39
2022/04/26 14:29:16;;;;;;;16.65;15.00;;;24.00;9.80;;;;;;5071753;28;20024;-39
2022/04/26 14:31:42;;;;;;;13.55;12.23;;;24.10;9.10;;;;;;5070985;28;20033;-40
2022/04/26 14:34:08;;;;;;;13.05;11.85;;;24.40;8.20;;;;;;5070490;28;20044;-40
2022/04/26 14:36:34;;;;;;;12.65;11.05;;;24.60;7.30;;;;;;5072043;28;20519;-39
2022/04/26 14:39:00;;;;;;;13.60;11.82;;;25.30;6.20;;;;;;5071421;28;20024;-40
2022/04/26 14:41:26;;;;;;;14.73;11.98;;;24.40;6.40;;;;;;5072645;28;20037;-39
2022/04/26 14:43:53;;;;;;;13.60;12.40;;;24.30;6.50;;;;;;5072205;28;20090;-39
2022/04/26 14:46:19;;;;;;;12.13;11.15;;;25.90;3.90;;;;;;5070958;28;20427;-39
2022/04/26 14:48:44;;;;;;;12.32;11.13;;;27.50;1.00;;;;;;5072018;28;20104;-40
2022/04/26 14:51:13;;;;;;;12.55;11.30;;;27.70;1.70;;;;;;5072435;28;20028;-40
2022/04/26 14:57:01;;;;;;;11.25;10.23;;;28.40;1.00;;;;;;5068487;28;20500;-40
2022/04/26 14:59:27;;;;;;;12.02;10.82;;;28.50;1.00;;;;;;5072012;28;20054;-40
2022/04/26 15:01:53;;;;;;;12.48;11.23;;;27.60;1.20;;;;;;5071632;28;20469;-39
2022/04/26 15:04:21;;;;;;;12.27;10.77;;;26.90;1.20;;;;;;5070035;28;20064;-38
2022/04/26 15:06:47;;;;;;;10.93;10.02;;;25.80;1.20;;;;;;5072667;28;20024;-39
2022/04/26 15:17:28;;;;;;;12.38;11.20;;;23.20;6.10;;;;;;5072800;28;20381;-39
2022/04/26 15:19:54;;;;;;;13.10;11.85;;;22.80;6.40;;;;;;5071592;28;20052;-39
2022/04/26 15:22:20;;;;;;;12.77;11.52;;;22.40;6.80;;;;;;5070975;28;20024;-39
2022/04/26 15:24:46;;;;;;;10.98;9.98;;;22.10;7.70;;;;;;5071300;28;20033;-39
2022/04/26 15:27:14;;;;;;;12.82;11.10;;;21.90;7.40;;;;;;5070947;28;20023;-39
2022/04/26 15:29:39;;;;;;;11.60;10.60;;;21.70;8.00;;;;;;5070736;28;20024;-39
2022/04/26 15:32:06;;;;;;;11.88;10.60;;;21.60;8.40;;;;;;5070845;28;20024;-40
2022/04/26 15:34:31;;;;;;;12.70;11.48;;;21.30;8.20;;;;;;5071250;28;20087;-40
2022/04/26 15:36:57;;;;;;;12.32;10.88;;;21.10;8.30;;;;;;5072125;28;20060;-40
2022/04/26 15:39:23;;;;;;;12.93;11.57;;;21.00;8.40;;;;;;5071397;28;20023;-39
2022/04/26 15:41:49;;;;;;;12.15;10.88;;;20.90;8.70;;;;;;5070884;28;20064;-40
2022/04/26 15:44:16;;;;;;;11.73;10.55;;;20.80;8.80;;;;;;5070781;28;20387;-38
2022/04/26 15:46:41;;;;;;;11.07;10.10;;;20.70;10.00;;;;;;5071214;28;20491;-40
2022/04/26 15:49:07;;;;;;;13.98;12.43;;;20.70;11.10;;;;;;5072211;28;20120;-40
2022/04/26 15:51:34;;;;;;;12.88;11.57;;;20.20;13.00;;;;;;5074650;28;20374;-39
2022/04/26 15:54:00;;;;;;;15.32;13.73;;;19.70;16.40;;;;;;5076265;28;20465;-40
2022/04/26 15:56:26;;;;;;;19.77;14.73;;;19.00;20.80;;;;;;5075858;28;20043;-40
2022/04/26 15:58:52;;;;;;;17.05;15.45;;;18.60;22.10;;;;;;5076254;28;20391;-39
2022/04/26 16:01:18;;;;;;;17.17;15.35;;;18.80;21.70;;;;;;5075637;28;20067;-39
2022/04/26 16:03:44;;;;;;;16.80;15.10;;;18.60;23.10;;;;;;5074788;28;20367;-40
2022/04/26 16:06:11;;;;;;;18.77;16.77;;;18.60;22.80;;;;;;5075077;28;20456;-39
2022/04/26 16:08:37;;;;;;;18.08;16.15;;;18.20;24.90;;;;;;5076018;28;20037;-39
2022/04/26 16:22:03;;;;;;;19.40;17.08;;;19.00;26.60;;;;;;5074691;28;20028;-39
2022/04/26 16:24:29;;;;;;;22.52;17.80;;;19.20;26.20;;;;;;5068539;28;20072;-38
2022/04/26 16:26:55;;;;;;;18.80;15.55;;;19.40;26.00;;;;;;5074358;28;20035;-40
2022/04/26 16:29:21;;;;;;;17.35;15.55;;;19.50;25.50;;;;;;5074747;28;20025;-39
2022/04/26 16:31:48;;;;;;;16.88;15.18;;;19.60;25.60;;;;;;5074399;28;20067;-39
2022/04/26 16:34:13;;;;;;;16.35;13.18;;;19.40;26.00;;;;;;5075386;28;20481;-39
2022/04/26 16:36:39;;;;;;;12.70;11.40;;;19.50;25.80;;;;;;5074773;28;20036;-39
2022/04/26 16:39:06;;;;;;;15.25;10.70;;;19.50;25.40;;;;;;5077930;28;20033;-39
2022/04/26 16:41:32;;;;;;;11.90;10.70;;;19.50;25.00;;;;;;5082158;28;20027;-39
2022/04/26 16:43:58;;;;;;;9.20;8.40;;;19.60;24.80;;;;;;5076322;28;20503;-38
2022/04/26 16:46:25;;;;;;;10.60;9.55;;;19.40;23.60;;;;;;5074313;28;20033;-39
2022/04/26 16:48:51;;;;;;;9.68;8.73;;;19.50;23.60;;;;;;5085503;28;20175;-39
2022/04/26 16:51:17;;;;;;;7.20;5.72;;;19.50;23.30;;;;;;5079899;28;20464;-39
2022/04/26 16:53:44;;;;;;;6.00;5.40;;;19.60;22.70;;;;;;5074453;28;20050;-39
2022/04/26 16:56:09;;;;;;;6.38;5.53;;;19.50;22.10;;;;;;5072579;28;20036;-38
2022/04/26 16:58:35;;;;;;;8.80;8.00;;;19.50;22.20;;;;;;5075052;28;20036;-39
2022/04/26 17:01:01;;;;;;;9.65;8.10;;;19.50;22.20;;;;;;5074171;28;20020;-39
2022/04/26 17:03:27;;;;;;;10.98;8.40;;;19.50;21.90;;;;;;5074411;28;20032;-39
2022/04/26 17:05:53;;;;;;;8.73;7.90;;;19.40;22.20;;;;;;5073933;28;20083;-38
2022/04/26 17:08:19;;;;;;;9.80;8.80;;;19.40;22.70;;;;;;5073738;28;20044;-39
2022/04/26 17:10:47;;;;;;;11.85;9.82;;;19.30;22.90;;;;;;5072665;28;20464;-39
2022/04/26 17:13:13;;;;;;;9.38;8.43;;;19.20;22.60;;;;;;5074794;28;20020;-39
2022/04/26 17:15:39;;;;;;;11.68;10.48;;;19.20;22.90;;;;;;5073519;28;20024;-39
2022/04/26 17:18:06;;;;;;;15.20;11.32;;;19.10;23.20;;;;;;5073372;28;20024;-39